createdAt,value
2018-09-22T00:02:11.019Z,12.00
2018-09-22T00:04:40.509Z,11.90
2018-09-22T00:07:09.979Z,12.00
2018-09-22T00:09:39.467Z,12.00
2018-09-22T00:12:08.941Z,12.10
2018-09-22T00:14:38.407Z,12.00
2018-09-22T00:17:07.962Z,11.90
2018-09-22T00:19:37.457Z,11.90
2018-09-22T00:22:06.959Z,11.80
2018-09-22T00:24:36.601Z,11.80
2018-09-22T00:27:06.210Z,11.80
2018-09-22T00:29:35.898Z,11.80
2018-09-22T00:32:05.458Z,11.70
2018-09-22T00:34:34.981Z,11.70
2018-09-22T00:37:04.484Z,11.60
2018-09-22T00:39:33.970Z,11.60
2018-09-22T00:42:03.437Z,11.50
2018-09-22T00:44:32.954Z,11.50
2018-09-22T00:47:02.437Z,11.40
2018-09-22T00:49:31.897Z,11.30
2018-09-22T00:52:01.362Z,11.20
2018-09-22T00:54:30.841Z,11.00
2018-09-22T00:57:00.315Z,11.00
2018-09-22T00:59:29.757Z,10.80
2018-09-22T01:01:59.252Z,10.80
2018-09-22T01:04:28.834Z,10.70
2018-09-22T01:06:58.324Z,10.50
2018-09-22T01:09:27.765Z,10.50
2018-09-22T01:11:57.206Z,10.40
2018-09-22T01:14:26.684Z,10.30
2018-09-22T01:16:56.159Z,10.30
2018-09-22T01:19:25.779Z,10.20
2018-09-22T01:21:55.244Z,10.20
2018-09-22T01:24:24.743Z,10.10
2018-09-22T01:26:54.203Z,10.00
2018-09-22T01:29:23.676Z,9.90
2018-09-22T01:31:53.126Z,9.80
2018-09-22T01:34:22.595Z,9.80
2018-09-22T01:36:52.049Z,9.70
2018-09-22T01:39:21.495Z,9.60
2018-09-22T01:41:51.006Z,9.60
2018-09-22T01:44:20.466Z,9.50
2018-09-22T01:46:49.987Z,9.40
2018-09-22T01:49:19.424Z,9.30
2018-09-22T01:51:48.964Z,9.30
2018-09-22T01:54:18.495Z,9.20
2018-09-22T01:56:47.977Z,9.20
2018-09-22T01:59:17.441Z,9.10
2018-09-22T02:01:46.942Z,9.00
2018-09-22T02:04:16.394Z,9.00
2018-09-22T02:06:45.895Z,9.00
2018-09-22T02:09:15.368Z,9.00
2018-09-22T02:11:45.122Z,9.00
2018-09-22T02:14:14.580Z,9.00
2018-09-22T02:16:44.278Z,8.90
2018-09-22T02:19:13.763Z,8.90
2018-09-22T02:21:43.423Z,8.80
2018-09-22T02:24:12.910Z,8.80
2018-09-22T02:26:42.466Z,8.80
2018-09-22T02:29:11.929Z,8.70
2018-09-22T02:31:41.554Z,8.70
2018-09-22T02:34:11.054Z,8.60
2018-09-22T02:36:46.822Z,8.60
2018-09-22T02:39:16.288Z,8.50
2018-09-22T02:41:45.968Z,8.50
2018-09-22T02:44:15.449Z,8.60
2018-09-22T02:46:44.969Z,8.60
2018-09-22T02:49:14.499Z,8.60
2018-09-22T02:51:44.356Z,8.50
2018-09-22T02:54:13.889Z,8.50
2018-09-22T02:56:43.408Z,8.40
2018-09-22T02:59:13.609Z,8.40
2018-09-22T03:01:43.159Z,8.50
2018-09-22T03:04:12.700Z,8.50
2018-09-22T03:06:42.180Z,8.60
2018-09-22T03:09:11.896Z,8.70
2018-09-22T03:11:41.372Z,8.70
2018-09-22T03:14:11.017Z,8.70
2018-09-22T03:16:40.945Z,8.70
2018-09-22T03:19:10.434Z,8.80
2018-09-22T03:21:39.906Z,8.80
2018-09-22T03:24:09.357Z,8.80
2018-09-22T03:26:38.813Z,8.80
2018-09-22T03:29:08.280Z,8.80
2018-09-22T03:31:37.766Z,8.90
2018-09-22T03:34:07.263Z,8.90
2018-09-22T03:36:36.749Z,8.90
2018-09-22T03:39:09.127Z,8.90
2018-09-22T03:41:38.577Z,8.90
2018-09-22T03:44:09.297Z,8.90
2018-09-22T03:46:38.812Z,9.00
2018-09-22T03:49:08.369Z,8.90
2018-09-22T03:51:37.826Z,9.00
2018-09-22T03:54:07.322Z,9.00
2018-09-22T03:56:36.828Z,9.00
2018-09-22T03:59:06.279Z,8.90
2018-09-22T04:01:35.761Z,8.80
2018-09-22T04:04:05.227Z,8.80
2018-09-22T04:06:34.694Z,8.80
2018-09-22T04:09:04.825Z,8.80
2018-09-22T04:11:34.436Z,8.80
2018-09-22T04:14:03.972Z,8.80
2018-09-22T04:16:33.481Z,8.80
2018-09-22T04:19:02.978Z,8.80
2018-09-22T04:21:32.425Z,8.80
2018-09-22T04:24:06.005Z,8.80
2018-09-22T04:26:35.456Z,8.80
2018-09-22T04:29:04.941Z,8.80
2018-09-22T04:31:34.411Z,8.80
2018-09-22T04:34:03.912Z,8.80
2018-09-22T04:36:33.376Z,8.80
2018-09-22T04:39:02.889Z,8.80
2018-09-22T04:41:32.354Z,8.90
2018-09-22T04:44:01.864Z,8.90
2018-09-22T04:46:31.322Z,9.00
2018-09-22T04:49:00.838Z,8.90
2018-09-22T04:51:30.273Z,9.00
2018-09-22T04:54:00.190Z,8.90
2018-09-22T04:56:29.896Z,8.90
2018-09-22T04:58:59.464Z,8.90
2018-09-22T05:01:28.956Z,8.90
2018-09-22T05:03:58.444Z,8.90
2018-09-22T05:06:27.925Z,8.90
2018-09-22T05:08:57.725Z,8.90
2018-09-22T05:11:27.270Z,9.00
2018-09-22T05:13:56.966Z,9.00
2018-09-22T05:16:26.431Z,9.00
2018-09-22T05:18:56.197Z,9.00
2018-09-22T05:21:25.674Z,9.00
2018-09-22T05:23:55.179Z,9.00
2018-09-22T05:26:24.660Z,9.10
2018-09-22T05:28:54.124Z,9.10
2018-09-22T05:31:23.567Z,9.10
2018-09-22T05:33:53.188Z,9.00
2018-09-22T05:36:22.948Z,9.00
2018-09-22T05:38:52.437Z,9.00
2018-09-22T05:41:21.913Z,9.10
2018-09-22T05:43:51.395Z,9.10
2018-09-22T05:46:20.948Z,9.20
2018-09-22T05:48:50.420Z,9.30
2018-09-22T05:51:19.936Z,9.40
2018-09-22T05:53:49.481Z,9.50
2018-09-22T05:56:19.372Z,9.60
2018-09-22T05:58:48.842Z,9.70
2018-09-22T06:01:18.345Z,9.90
2018-09-22T06:03:47.943Z,10.00
2018-09-22T06:06:17.421Z,10.10
2018-09-22T06:08:46.954Z,10.20
2018-09-22T06:11:16.582Z,10.20
2018-09-22T06:13:46.266Z,10.20
2018-09-22T06:16:15.761Z,10.20
2018-09-22T06:18:45.298Z,10.20
2018-09-22T06:21:14.826Z,10.40
2018-09-22T06:23:44.654Z,10.50
2018-09-22T06:26:14.188Z,10.70
2018-09-22T06:28:43.759Z,11.00
2018-09-22T06:31:13.234Z,11.30
2018-09-22T06:33:42.727Z,11.50
2018-09-22T06:36:12.186Z,11.80
2018-09-22T06:38:41.731Z,12.00
2018-09-22T06:41:11.234Z,12.20
2018-09-22T06:43:40.799Z,12.50
2018-09-22T06:46:10.391Z,13.00
2018-09-22T06:48:39.797Z,13.30
2018-09-22T06:51:09.315Z,13.60
2018-09-22T06:53:38.786Z,14.00
2018-09-22T06:56:08.408Z,14.20
2018-09-22T06:58:37.932Z,14.20
2018-09-22T07:01:07.530Z,14.40
2018-09-22T07:03:37.016Z,14.40
2018-09-22T07:06:06.537Z,14.50
2018-09-22T07:08:36.051Z,14.70
2018-09-22T07:11:05.709Z,14.60
2018-09-22T07:13:35.219Z,14.30
2018-09-22T07:16:04.814Z,14.30
2018-09-22T07:18:34.365Z,14.40
2018-09-22T07:21:07.841Z,14.60
2018-09-22T07:23:37.384Z,14.70
2018-09-22T07:26:07.009Z,14.60
2018-09-22T07:28:36.493Z,14.60
2018-09-22T07:31:06.348Z,14.60
2018-09-22T07:33:35.892Z,14.70
2018-09-22T07:36:05.477Z,14.80
2018-09-22T07:38:35.041Z,15.00
2018-09-22T07:41:04.620Z,15.10
2018-09-22T07:43:34.115Z,15.10
2018-09-22T07:46:03.631Z,15.30
2018-09-22T07:48:33.157Z,15.70
2018-09-22T07:51:02.661Z,16.30
2018-09-22T07:53:32.184Z,16.10
2018-09-22T07:56:01.677Z,17.10
2018-09-22T07:58:31.184Z,18.10
2018-09-22T08:01:00.926Z,18.80
2018-09-22T08:03:30.416Z,19.20
2018-09-22T08:05:59.992Z,19.70
2018-09-22T08:08:29.491Z,20.10
2018-09-22T08:10:59.015Z,20.20
2018-09-22T08:13:28.696Z,21.10
2018-09-22T08:15:59.004Z,21.40
2018-09-22T08:18:28.712Z,21.60
2018-09-22T08:20:58.323Z,22.10
2018-09-22T08:23:27.766Z,22.80
2018-09-22T08:25:57.273Z,23.70
2018-09-22T08:28:26.750Z,23.90
2018-09-22T08:30:56.229Z,24.20
2018-09-22T08:33:25.765Z,24.00
2018-09-22T08:35:55.344Z,23.70
2018-09-22T08:38:24.839Z,22.70
2018-09-22T08:40:54.412Z,23.00
2018-09-22T08:43:23.964Z,22.40
2018-09-22T08:45:53.477Z,22.40
2018-09-22T08:48:22.967Z,22.70
2018-09-22T08:50:52.462Z,23.40
2018-09-22T08:53:21.987Z,23.80
2018-09-22T08:55:57.721Z,23.70
2018-09-22T08:58:27.178Z,23.60
2018-09-22T09:00:56.706Z,22.90
2018-09-22T09:03:26.226Z,22.60
2018-09-22T09:05:55.739Z,22.10
2018-09-22T09:08:25.239Z,21.00
2018-09-22T09:10:54.713Z,20.80
2018-09-22T09:13:24.267Z,20.70
2018-09-22T09:15:53.746Z,20.10
2018-09-22T09:18:23.276Z,19.50
2018-09-22T09:20:52.769Z,19.10
2018-09-22T09:23:22.274Z,19.00
2018-09-22T09:25:51.763Z,19.30
2018-09-22T09:28:21.298Z,19.10
2018-09-22T09:30:50.992Z,18.70
2018-09-22T09:33:20.590Z,18.20
2018-09-22T09:35:50.129Z,18.70
2018-09-22T09:38:19.588Z,18.90
2018-09-22T09:40:49.091Z,18.80
2018-09-22T09:43:18.649Z,19.10
2018-09-22T09:45:48.139Z,19.30
2018-09-22T09:48:17.860Z,19.70
2018-09-22T09:50:48.531Z,20.20
2018-09-22T09:53:18.206Z,21.10
2018-09-22T09:55:47.764Z,22.40
2018-09-22T09:58:17.501Z,23.90
2018-09-22T10:00:47.194Z,24.40
2018-09-22T10:03:17.933Z,24.80
2018-09-22T10:05:47.843Z,25.00
2018-09-22T10:08:17.705Z,24.50
2018-09-22T10:10:47.424Z,24.30
2018-09-22T10:13:16.927Z,25.10
2018-09-22T10:15:46.486Z,25.70
2018-09-22T10:18:16.113Z,26.50
2018-09-22T10:20:45.602Z,26.90
2018-09-22T10:23:15.108Z,27.20
2018-09-22T10:25:44.647Z,26.90
2018-09-22T10:28:14.142Z,25.90
2018-09-22T10:30:43.676Z,25.40
2018-09-22T10:33:13.196Z,25.00
2018-09-22T10:35:42.690Z,25.00
2018-09-22T10:38:12.167Z,25.40
2018-09-22T10:40:41.707Z,26.00
2018-09-22T10:43:11.212Z,26.60
2018-09-22T10:45:40.698Z,27.80
2018-09-22T10:48:10.194Z,27.70
2018-09-22T10:50:39.677Z,27.20
2018-09-22T10:53:09.327Z,26.00
2018-09-22T10:55:38.694Z,24.10
2018-09-22T10:58:07.219Z,23.50
2018-09-22T11:00:36.685Z,23.30
2018-09-22T11:03:06.237Z,25.20
2018-09-22T11:05:35.884Z,26.00
2018-09-22T11:08:05.425Z,26.10
2018-09-22T11:10:34.942Z,25.10
2018-09-22T11:13:04.457Z,24.50
2018-09-22T11:15:33.962Z,24.30
2018-09-22T11:18:03.561Z,23.90
2018-09-22T11:20:33.088Z,24.40
2018-09-22T11:23:02.620Z,24.80
2018-09-22T11:25:32.441Z,24.80
2018-09-22T11:28:02.055Z,24.60
2018-09-22T11:30:31.612Z,24.30
2018-09-22T11:33:01.152Z,24.10
2018-09-22T11:35:30.691Z,23.40
2018-09-22T11:38:06.528Z,23.30
2018-09-22T11:40:36.111Z,22.70
2018-09-22T11:43:05.593Z,22.80
2018-09-22T11:45:35.125Z,22.10
2018-09-22T11:48:04.671Z,21.70
2018-09-22T11:50:34.191Z,21.60
2018-09-22T11:53:03.913Z,21.40
2018-09-22T11:55:33.633Z,21.50
2018-09-22T11:58:03.165Z,21.80
2018-09-22T12:00:32.666Z,21.90
2018-09-22T12:03:02.191Z,21.60
2018-09-22T12:05:31.807Z,21.30
2018-09-22T12:08:01.336Z,21.20
2018-09-22T12:10:30.889Z,21.20
2018-09-22T12:13:00.433Z,21.40
2018-09-22T12:15:30.017Z,21.70
2018-09-22T12:17:59.480Z,21.50
2018-09-22T12:20:29.630Z,21.70
2018-09-22T12:22:59.183Z,21.50
2018-09-22T12:25:28.899Z,21.40
2018-09-22T12:27:58.406Z,21.10
2018-09-22T12:30:28.012Z,20.70
2018-09-22T12:32:57.561Z,20.70
2018-09-22T12:35:27.283Z,20.60
2018-09-22T12:37:56.725Z,20.50
2018-09-22T12:40:26.376Z,20.60
2018-09-22T12:42:56.125Z,20.80
2018-09-22T12:45:25.704Z,20.70
2018-09-22T12:47:55.255Z,21.20
2018-09-22T12:50:24.863Z,21.50
2018-09-22T12:52:54.478Z,21.50
2018-09-22T12:55:23.970Z,21.70
2018-09-22T12:57:53.435Z,21.50
2018-09-22T13:00:22.986Z,21.40
2018-09-22T13:02:52.500Z,21.50
2018-09-22T13:05:22.018Z,21.30
2018-09-22T13:07:51.561Z,21.20
2018-09-22T13:10:21.126Z,20.70
2018-09-22T13:12:50.614Z,20.60
2018-09-22T13:15:20.132Z,20.50
2018-09-22T13:17:49.685Z,20.50
2018-09-22T13:20:19.274Z,20.40
2018-09-22T13:22:48.708Z,20.70
2018-09-22T13:25:18.222Z,20.60
2018-09-22T13:27:47.665Z,20.70
2018-09-22T13:30:17.189Z,20.60
2018-09-22T13:32:46.757Z,20.60
2018-09-22T13:35:16.337Z,20.70
2018-09-22T13:37:45.945Z,20.70
2018-09-22T13:40:15.475Z,20.60
2018-09-22T13:42:45.092Z,20.60
2018-09-22T13:45:14.696Z,20.40
2018-09-22T13:47:44.373Z,20.30
2018-09-22T13:50:14.031Z,20.20
2018-09-22T13:52:43.635Z,20.10
2018-09-22T13:55:13.173Z,20.00
2018-09-22T13:57:42.762Z,20.10
2018-09-22T14:00:12.292Z,20.00
2018-09-22T14:02:41.861Z,19.80
2018-09-22T14:05:11.463Z,20.00
2018-09-22T14:07:41.054Z,20.00
2018-09-22T14:10:10.706Z,20.10
2018-09-22T14:12:44.076Z,20.10
2018-09-22T14:15:13.783Z,20.20
2018-09-22T14:17:43.330Z,20.50
2018-09-22T14:20:12.928Z,20.30
2018-09-22T14:22:42.490Z,20.30
2018-09-22T14:25:12.098Z,20.40
2018-09-22T14:27:41.664Z,20.40
2018-09-22T14:30:11.236Z,20.60
2018-09-22T14:32:40.821Z,20.40
2018-09-22T14:35:10.380Z,20.20
2018-09-22T14:37:39.987Z,20.00
2018-09-22T14:40:09.645Z,19.90
2018-09-22T14:42:39.547Z,19.90
2018-09-22T14:45:09.221Z,19.80
2018-09-22T14:47:39.217Z,19.70
2018-09-22T14:50:08.773Z,19.60
2018-09-22T14:52:38.471Z,19.60
2018-09-22T14:55:08.080Z,19.60
2018-09-22T14:57:37.722Z,19.60
2018-09-22T15:00:07.357Z,19.60
2018-09-22T15:02:37.203Z,19.50
2018-09-22T15:05:06.784Z,19.30
2018-09-22T15:07:36.297Z,19.10
2018-09-22T15:10:05.999Z,19.00
2018-09-22T15:12:35.623Z,18.80
2018-09-22T15:15:05.430Z,18.60
2018-09-22T15:17:34.981Z,18.50
2018-09-22T15:20:04.650Z,18.40
2018-09-22T15:22:34.165Z,18.40
2018-09-22T15:25:03.701Z,18.40
2018-09-22T15:27:33.995Z,18.40
2018-09-22T15:30:03.550Z,18.30
2018-09-22T15:32:33.066Z,18.20
2018-09-22T15:35:02.610Z,18.00
2018-09-22T15:37:32.148Z,17.70
2018-09-22T15:40:01.734Z,17.60
2018-09-22T15:42:31.245Z,17.50
2018-09-22T15:45:00.790Z,17.50
2018-09-22T15:47:30.326Z,17.30
2018-09-22T15:49:59.880Z,17.00
2018-09-22T15:52:29.412Z,16.90
2018-09-22T15:54:58.952Z,16.90
2018-09-22T15:57:28.497Z,17.00
2018-09-22T15:59:58.012Z,16.90
2018-09-22T16:02:27.583Z,17.00
2018-09-22T16:04:57.175Z,17.00
2018-09-22T16:07:26.682Z,17.00
2018-09-22T16:09:56.439Z,16.90
2018-09-22T16:12:26.001Z,17.00
2018-09-22T16:14:55.578Z,16.90
2018-09-22T16:17:25.096Z,16.90
2018-09-22T16:19:54.625Z,16.80
2018-09-22T16:22:24.202Z,16.90
2018-09-22T16:24:53.820Z,16.80
2018-09-22T16:27:23.449Z,16.80
2018-09-22T16:29:53.034Z,16.70
2018-09-22T16:32:22.602Z,16.70
2018-09-22T16:34:52.946Z,16.50
2018-09-22T16:37:22.481Z,16.40
2018-09-22T16:39:52.059Z,16.30
2018-09-22T16:42:21.579Z,16.00
2018-09-22T16:44:51.095Z,15.80
2018-09-22T16:47:20.625Z,15.70
2018-09-22T16:49:52.933Z,15.60
2018-09-22T16:52:22.449Z,15.40
2018-09-22T16:54:51.972Z,15.40
2018-09-22T16:57:21.429Z,15.40
2018-09-22T16:59:50.980Z,15.30
2018-09-22T17:02:20.531Z,15.10
2018-09-22T17:04:50.068Z,15.10
2018-09-22T17:07:19.690Z,14.90
2018-09-22T17:09:49.638Z,14.90
2018-09-22T17:12:19.165Z,14.90
2018-09-22T17:14:49.541Z,14.90
2018-09-22T17:17:19.094Z,14.90
2018-09-22T17:19:48.896Z,14.80
2018-09-22T17:22:18.473Z,14.80
2018-09-22T17:24:48.368Z,14.80
2018-09-22T17:27:17.901Z,14.90
2018-09-22T17:29:47.419Z,14.90
2018-09-22T17:32:16.963Z,14.80
2018-09-22T17:34:46.452Z,14.70
2018-09-22T17:37:15.966Z,14.60
2018-09-22T17:39:45.579Z,14.40
2018-09-22T17:42:15.093Z,14.30
2018-09-22T17:44:44.618Z,14.20
2018-09-22T17:47:14.180Z,14.20
2018-09-22T17:49:43.678Z,14.10
2018-09-22T17:52:13.207Z,14.00
2018-09-22T17:54:42.742Z,14.00
2018-09-22T17:57:12.315Z,13.90
2018-09-22T17:59:42.151Z,13.80
2018-09-22T18:02:11.721Z,13.80
2018-09-22T18:04:41.237Z,13.70
2018-09-22T18:07:10.793Z,13.60
2018-09-22T18:09:40.391Z,13.60
2018-09-22T18:12:10.004Z,13.60
2018-09-22T18:14:39.514Z,13.70
2018-09-22T18:17:09.198Z,13.60
2018-09-22T18:19:38.779Z,13.60
2018-09-22T18:22:08.388Z,13.50
2018-09-22T18:24:40.809Z,13.50
2018-09-22T18:27:10.308Z,13.50
2018-09-22T18:29:39.823Z,13.40
2018-09-22T18:32:10.022Z,13.40
2018-09-22T18:34:39.549Z,13.30
2018-09-22T18:37:09.142Z,13.20
2018-09-22T18:39:38.658Z,13.20
2018-09-22T18:42:08.221Z,13.20
2018-09-22T18:44:37.793Z,13.20
2018-09-22T18:47:07.442Z,13.00
2018-09-22T18:49:36.932Z,12.90
2018-09-22T18:52:06.677Z,12.80
2018-09-22T18:54:36.269Z,12.70
2018-09-22T18:57:05.798Z,12.70
2018-09-22T18:59:35.444Z,12.40
2018-09-22T19:02:05.811Z,12.40
2018-09-22T19:04:35.374Z,12.30
2018-09-22T19:07:04.992Z,12.20
2018-09-22T19:09:34.610Z,12.20
2018-09-22T19:12:04.279Z,12.20
2018-09-22T19:14:40.798Z,12.20
2018-09-22T19:17:14.848Z,12.20
2018-09-22T19:19:47.005Z,12.10
2018-09-22T19:22:20.267Z,12.10
2018-09-22T19:24:54.526Z,12.00
2018-09-22T19:27:28.025Z,12.00
2018-09-22T19:31:03.650Z,11.90
2018-09-22T19:33:35.724Z,11.90
2018-09-22T19:36:09.471Z,11.90
2018-09-22T19:39:15.300Z,11.90
2018-09-22T19:41:49.106Z,11.80
2018-09-22T19:44:22.589Z,11.90
2018-09-22T19:47:04.111Z,11.90
2018-09-22T19:49:37.202Z,11.90
2018-09-22T19:52:09.856Z,12.10
2018-09-22T19:54:40.021Z,12.10
2018-09-22T19:57:09.610Z,12.10
2018-09-22T19:59:39.141Z,12.10
2018-09-22T20:02:08.653Z,12.10
2018-09-22T20:04:38.202Z,12.10
2018-09-22T20:07:07.866Z,12.10
2018-09-22T20:09:37.389Z,12.20
2018-09-22T20:12:07.111Z,12.30
2018-09-22T20:14:36.642Z,12.30
2018-09-22T20:17:06.273Z,12.40
2018-09-22T20:19:35.807Z,12.40
2018-09-22T20:22:06.637Z,12.30
2018-09-22T20:24:36.135Z,12.30
2018-09-22T20:27:05.706Z,12.40
2018-09-22T20:29:35.274Z,12.30
2018-09-22T20:32:04.857Z,12.30
2018-09-22T20:34:34.452Z,12.30
2018-09-22T20:37:04.146Z,12.30
2018-09-22T20:39:33.952Z,12.30
2018-09-22T20:42:03.676Z,12.30
2018-09-22T20:44:33.239Z,12.30
2018-09-22T20:47:02.911Z,12.30
2018-09-22T20:49:32.417Z,12.30
2018-09-22T20:52:02.043Z,12.30
2018-09-22T20:54:31.551Z,12.30
2018-09-22T20:57:01.143Z,12.30
2018-09-22T20:59:30.701Z,12.30
2018-09-22T21:02:00.272Z,12.20
2018-09-22T21:04:29.879Z,12.20
2018-09-22T21:06:59.407Z,12.00
2018-09-22T21:09:28.883Z,12.00
2018-09-22T21:11:58.519Z,12.00
2018-09-22T21:14:28.026Z,12.00
2018-09-22T21:16:57.555Z,12.00
2018-09-22T21:19:27.083Z,12.10
2018-09-22T21:21:56.628Z,12.10
2018-09-22T21:24:26.205Z,12.10
2018-09-22T21:26:55.689Z,12.10
2018-09-22T21:29:25.197Z,12.20
2018-09-22T21:31:54.721Z,12.30
2018-09-22T21:34:24.289Z,12.30
2018-09-22T21:36:53.797Z,12.40
2018-09-22T21:39:23.398Z,12.40
2018-09-22T21:41:52.952Z,12.40
2018-09-22T21:44:22.441Z,12.40
2018-09-22T21:46:51.937Z,12.40
2018-09-22T21:49:21.473Z,12.50
2018-09-22T21:51:51.124Z,12.50
2018-09-22T21:54:20.636Z,12.50
2018-09-22T21:56:50.165Z,12.40
2018-09-22T21:59:19.647Z,12.40
2018-09-22T22:01:49.223Z,12.50
2018-09-22T22:04:18.700Z,12.50
2018-09-22T22:06:48.254Z,12.50
2018-09-22T22:09:17.718Z,12.40
2018-09-22T22:11:47.298Z,12.40
2018-09-22T22:14:16.808Z,12.40
2018-09-22T22:16:46.264Z,12.50
2018-09-22T22:19:15.784Z,12.50
2018-09-22T22:21:45.256Z,12.50
2018-09-22T22:24:14.763Z,12.50
2018-09-22T22:26:44.292Z,12.40
2018-09-22T22:29:13.785Z,12.50
2018-09-22T22:31:43.327Z,12.50
2018-09-22T22:34:12.987Z,12.40
2018-09-22T22:36:42.438Z,12.30
2018-09-22T22:39:11.993Z,12.30
2018-09-22T22:41:41.502Z,12.40
2018-09-22T22:44:11.059Z,12.40
2018-09-22T22:46:40.568Z,12.40
2018-09-22T22:49:10.099Z,12.40
2018-09-22T22:51:39.672Z,12.40
2018-09-22T22:54:09.199Z,12.40
2018-09-22T22:56:38.671Z,12.50
2018-09-22T22:59:08.194Z,12.50
2018-09-22T23:01:37.691Z,12.50
2018-09-22T23:04:07.551Z,12.50
2018-09-22T23:06:39.980Z,12.40
2018-09-22T23:09:10.243Z,12.40
2018-09-22T23:11:39.757Z,12.30
2018-09-22T23:14:09.423Z,12.20
2018-09-22T23:16:38.918Z,12.20
2018-09-22T23:19:08.413Z,12.30
2018-09-22T23:21:40.692Z,12.40
2018-09-22T23:24:10.256Z,12.40
2018-09-22T23:26:39.750Z,12.40
2018-09-22T23:29:09.206Z,12.40
2018-09-22T23:31:38.684Z,12.40
2018-09-22T23:34:08.150Z,12.40
2018-09-22T23:36:37.612Z,12.40
2018-09-22T23:39:09.521Z,12.40
2018-09-22T23:41:39.051Z,12.40
2018-09-22T23:44:08.823Z,12.30
2018-09-22T23:46:38.791Z,12.40
2018-09-22T23:49:08.545Z,12.40
2018-09-22T23:51:38.060Z,12.40
2018-09-22T23:54:07.747Z,12.50
2018-09-22T23:56:37.218Z,12.50
2018-09-22T23:59:06.753Z,12.40
